Tiangang, China
Current Conditions -  °F | °C
As of 5:00 AM on Sunday 23 Nov 2014 (Local Time) from ZYCC Reporting Station
Clear Clear  
Wind Chill:   Ceiling: Unl
Heat Index: 16°   Visibility: 6mi
Dew Point: 10°   Wind: 7mph
Humidity: 79%   Direction: 160°SSE
Pressure: 30.21"   Gusts: NA
Location:  43.88°N, 126.95°E
Report Text: ZYCC 222100Z 16003MPS CAVOK M09/M12 Q1023 NOSIG
Loading
Personal Weather Stations






























Interactive Weather Map New forecast layout! Learn more

10-Day Weather Forecast

Advertisements
Track Severe Weather on mobile